Terminal Aerodrome Forecast
Issued by NWS Jackson, KY

Home | Current Version | Previous Version | Text Only | Print | Product List | Glossary On
Versions: 1 2 3 4 5 6 7 8 9 10 11 12
000
FTUS43 KJKL 231100
TAFJKL
TAF
KJKL 231139Z 2312/2412 15005KT P6SM BKN050 BKN100
     FM231700 15006KT P6SM VCSH OVC050
     FM232100 15009KT 5SM -SHRA BR OVC025
     FM240400 20009KT P6SM VCSH OVC050 WS010/20045KT=

USA.gov is the U.S. government's official web portal to all federal, state and local government web resources and services.